sensor_id;sensor_type;location;lat;lon;timestamp;temperature;humidity
16643;DHT22;8435;52.184;5.406;2022-12-13T00:00:37;-0.60;99.90
16643;DHT22;8435;52.184;5.406;2022-12-13T00:03:03;-0.60;99.90
16643;DHT22;8435;52.184;5.406;2022-12-13T00:05:32;-0.60;99.90
16643;DHT22;8435;52.184;5.406;2022-12-13T00:08:00;-0.60;99.90
16643;DHT22;8435;52.184;5.406;2022-12-13T00:10:27;-0.70;99.90
16643;DHT22;8435;52.184;5.406;2022-12-13T00:12:54;-0.70;99.90
16643;DHT22;8435;52.184;5.406;2022-12-13T00:15:21;-0.70;99.90
16643;DHT22;8435;52.184;5.406;2022-12-13T00:17:47;-0.70;99.90
16643;DHT22;8435;52.184;5.406;2022-12-13T00:20:15;-0.70;99.90
16643;DHT22;8435;52.184;5.406;2022-12-13T00:22:41;-0.80;99.90
16643;DHT22;8435;52.184;5.406;2022-12-13T00:25:10;-0.70;99.90
16643;DHT22;8435;52.184;5.406;2022-12-13T00:27:36;-0.80;99.90
16643;DHT22;8435;52.184;5.406;2022-12-13T00:30:04;-0.80;99.90
16643;DHT22;8435;52.184;5.406;2022-12-13T00:32:31;-0.80;99.90
16643;DHT22;8435;52.184;5.406;2022-12-13T00:34:58;-0.80;99.90
16643;DHT22;8435;52.184;5.406;2022-12-13T00:37:25;-0.80;99.90
16643;DHT22;8435;52.184;5.406;2022-12-13T00:39:52;-0.80;99.90
16643;DHT22;8435;52.184;5.406;2022-12-13T00:42:20;-0.80;99.90
16643;DHT22;8435;52.184;5.406;2022-12-13T00:44:47;-0.90;99.90
16643;DHT22;8435;52.184;5.406;2022-12-13T00:47:13;-0.90;99.90
16643;DHT22;8435;52.184;5.406;2022-12-13T00:49:40;-0.90;99.90
16643;DHT22;8435;52.184;5.406;2022-12-13T00:52:07;-0.90;99.90
16643;DHT22;8435;52.184;5.406;2022-12-13T00:54:34;-0.90;99.90
16643;DHT22;8435;52.184;5.406;2022-12-13T00:57:01;-0.90;99.90
16643;DHT22;8435;52.184;5.406;2022-12-13T00:59:29;-0.90;99.90
16643;DHT22;8435;52.184;5.406;2022-12-13T01:01:56;-0.90;99.90
16643;DHT22;8435;52.184;5.406;2022-12-13T01:04:23;-1.00;99.90
16643;DHT22;8435;52.184;5.406;2022-12-13T01:06:50;-1.00;99.90
16643;DHT22;8435;52.184;5.406;2022-12-13T01:09:20;-1.00;99.90
16643;DHT22;8435;52.184;5.406;2022-12-13T01:11:48;-1.00;99.90
16643;DHT22;8435;52.184;5.406;2022-12-13T01:14:16;-1.00;99.90
16643;DHT22;8435;52.184;5.406;2022-12-13T01:16:44;-1.00;99.90
16643;DHT22;8435;52.184;5.406;2022-12-13T01:19:11;-1.00;99.90
16643;DHT22;8435;52.184;5.406;2022-12-13T01:21:38;-1.10;99.90
16643;DHT22;8435;52.184;5.406;2022-12-13T01:24:05;-1.10;99.90
16643;DHT22;8435;52.184;5.406;2022-12-13T01:26:33;-1.10;99.90
16643;DHT22;8435;52.184;5.406;2022-12-13T01:29:00;-1.10;99.90
16643;DHT22;8435;52.184;5.406;2022-12-13T01:31:29;-1.10;99.90
16643;DHT22;8435;52.184;5.406;2022-12-13T01:33:58;-1.10;99.90
16643;DHT22;8435;52.184;5.406;2022-12-13T01:36:25;-1.10;99.90
16643;DHT22;8435;52.184;5.406;2022-12-13T01:38:51;-1.20;99.90
16643;DHT22;8435;52.184;5.406;2022-12-13T01:41:20;-1.20;99.90
16643;DHT22;8435;52.184;5.406;2022-12-13T01:43:53;-1.20;99.90
16643;DHT22;8435;52.184;5.406;2022-12-13T01:46:20;-1.20;99.90
16643;DHT22;8435;52.184;5.406;2022-12-13T01:48:52;-1.20;99.90
16643;DHT22;8435;52.184;5.406;2022-12-13T01:51:26;-1.20;99.90
16643;DHT22;8435;52.184;5.406;2022-12-13T01:53:56;-1.20;99.90
16643;DHT22;8435;52.184;5.406;2022-12-13T01:56:28;-1.30;99.90
16643;DHT22;8435;52.184;5.406;2022-12-13T01:58:56;-1.20;99.90
16643;DHT22;8435;52.184;5.406;2022-12-13T02:01:25;-1.30;99.90
16643;DHT22;8435;52.184;5.406;2022-12-13T02:03:52;-1.30;99.90
16643;DHT22;8435;52.184;5.406;2022-12-13T02:06:26;-1.30;99.90
16643;DHT22;8435;52.184;5.406;2022-12-13T02:08:55;-1.30;99.90
16643;DHT22;8435;52.184;5.406;2022-12-13T02:11:23;-1.30;99.90
16643;DHT22;8435;52.184;5.406;2022-12-13T02:13:50;-1.30;99.90
16643;DHT22;8435;52.184;5.406;2022-12-13T02:16:27;-1.30;99.90
16643;DHT22;8435;52.184;5.406;2022-12-13T02:19:10;-1.30;99.90
16643;DHT22;8435;52.184;5.406;2022-12-13T02:21:53;-1.30;99.90
16643;DHT22;8435;52.184;5.406;2022-12-13T02:24:53;-1.30;99.90
16643;DHT22;8435;52.184;5.406;2022-12-13T02:27:43;-1.30;99.90
16643;DHT22;8435;52.184;5.406;2022-12-13T02:30:28;-1.30;99.90
16643;DHT22;8435;52.184;5.406;2022-12-13T02:33:18;-1.30;99.90
16643;DHT22;8435;52.184;5.406;2022-12-13T02:35:51;-1.30;99.90
16643;DHT22;8435;52.184;5.406;2022-12-13T02:38:26;-1.40;99.90
16643;DHT22;8435;52.184;5.406;2022-12-13T02:41:04;-1.40;99.90
16643;DHT22;8435;52.184;5.406;2022-12-13T02:43:37;-1.40;99.90
16643;DHT22;8435;52.184;5.406;2022-12-13T02:46:07;-1.40;99.90
16643;DHT22;8435;52.184;5.406;2022-12-13T02:48:38;-1.40;99.90
16643;DHT22;8435;52.184;5.406;2022-12-13T02:51:08;-1.40;99.90
16643;DHT22;8435;52.184;5.406;2022-12-13T02:53:39;-1.40;99.90
16643;DHT22;8435;52.184;5.406;2022-12-13T02:56:06;-1.40;99.90
16643;DHT22;8435;52.184;5.406;2022-12-13T02:58:35;-1.40;99.90
16643;DHT22;8435;52.184;5.406;2022-12-13T03:01:17;-1.50;99.90
16643;DHT22;8435;52.184;5.406;2022-12-13T03:03:52;-1.50;99.90
16643;DHT22;8435;52.184;5.406;2022-12-13T03:06:28;-1.50;99.90
16643;DHT22;8435;52.184;5.406;2022-12-13T03:09:06;-1.50;99.90
16643;DHT22;8435;52.184;5.406;2022-12-13T03:11:48;-1.50;99.90
16643;DHT22;8435;52.184;5.406;2022-12-13T03:14:36;-1.50;99.90
16643;DHT22;8435;52.184;5.406;2022-12-13T03:17:06;-1.50;99.90
16643;DHT22;8435;52.184;5.406;2022-12-13T03:19:34;-1.50;99.90
16643;DHT22;8435;52.184;5.406;2022-12-13T03:22:04;-1.50;99.90
16643;DHT22;8435;52.184;5.406;2022-12-13T03:24:32;-1.50;99.90
16643;DHT22;8435;52.184;5.406;2022-12-13T03:26:59;-1.60;99.90
16643;DHT22;8435;52.184;5.406;2022-12-13T03:29:26;-1.50;99.90
16643;DHT22;8435;52.184;5.406;2022-12-13T03:31:53;-1.50;99.90
16643;DHT22;8435;52.184;5.406;2022-12-13T03:34:21;-1.60;99.90
16643;DHT22;8435;52.184;5.406;2022-12-13T03:36:48;-1.70;99.90
16643;DHT22;8435;52.184;5.406;2022-12-13T03:39:15;-1.60;99.90
16643;DHT22;8435;52.184;5.406;2022-12-13T03:41:42;-1.60;99.90
16643;DHT22;8435;52.184;5.406;2022-12-13T03:44:08;-1.60;99.90
16643;DHT22;8435;52.184;5.406;2022-12-13T03:46:35;-1.70;99.90
16643;DHT22;8435;52.184;5.406;2022-12-13T03:49:02;-1.70;99.90
16643;DHT22;8435;52.184;5.406;2022-12-13T03:51:30;-1.70;99.90
16643;DHT22;8435;52.184;5.406;2022-12-13T03:53:57;-1.70;99.90
16643;DHT22;8435;52.184;5.406;2022-12-13T03:56:24;-1.70;99.90
16643;DHT22;8435;52.184;5.406;2022-12-13T03:58:52;-1.70;99.90
16643;DHT22;8435;52.184;5.406;2022-12-13T04:01:19;-1.70;99.90
16643;DHT22;8435;52.184;5.406;2022-12-13T04:03:46;-1.80;99.90
16643;DHT22;8435;52.184;5.406;2022-12-13T04:06:14;-1.80;99.90
16643;DHT22;8435;52.184;5.406;2022-12-13T04:08:42;-1.80;99.90
16643;DHT22;8435;52.184;5.406;2022-12-13T04:11:09;-1.80;99.90
16643;DHT22;8435;52.184;5.406;2022-12-13T04:13:54;-1.80;99.90
16643;DHT22;8435;52.184;5.406;2022-12-13T04:16:22;-1.80;99.90
16643;DHT22;8435;52.184;5.406;2022-12-13T04:18:49;-1.90;99.90
16643;DHT22;8435;52.184;5.406;2022-12-13T04:21:16;-1.90;99.90
16643;DHT22;8435;52.184;5.406;2022-12-13T04:23:44;-1.90;99.90
16643;DHT22;8435;52.184;5.406;2022-12-13T04:26:11;-1.90;99.90
16643;DHT22;8435;52.184;5.406;2022-12-13T04:28:38;-1.90;99.90
16643;DHT22;8435;52.184;5.406;2022-12-13T04:31:05;-1.90;99.90
16643;DHT22;8435;52.184;5.406;2022-12-13T04:33:31;-1.90;99.90
16643;DHT22;8435;52.184;5.406;2022-12-13T04:35:58;-1.90;99.90
16643;DHT22;8435;52.184;5.406;2022-12-13T04:38:25;-2.00;99.90
16643;DHT22;8435;52.184;5.406;2022-12-13T04:41:03;-1.90;99.90
16643;DHT22;8435;52.184;5.406;2022-12-13T04:43:30;-2.00;99.90
16643;DHT22;8435;52.184;5.406;2022-12-13T04:45:57;-2.00;99.90
16643;DHT22;8435;52.184;5.406;2022-12-13T04:48:24;-2.00;99.90
16643;DHT22;8435;52.184;5.406;2022-12-13T04:50:51;-2.00;99.90
16643;DHT22;8435;52.184;5.406;2022-12-13T04:53:18;-2.00;99.90
16643;DHT22;8435;52.184;5.406;2022-12-13T04:55:44;-2.00;99.90
16643;DHT22;8435;52.184;5.406;2022-12-13T04:58:13;-2.00;99.90
16643;DHT22;8435;52.184;5.406;2022-12-13T05:00:40;-2.00;99.90
16643;DHT22;8435;52.184;5.406;2022-12-13T05:03:06;-2.00;99.90
16643;DHT22;8435;52.184;5.406;2022-12-13T05:05:33;-2.00;99.90
16643;DHT22;8435;52.184;5.406;2022-12-13T05:08:00;-2.00;99.90
16643;DHT22;8435;52.184;5.406;2022-12-13T05:10:27;-2.00;99.90
16643;DHT22;8435;52.184;5.406;2022-12-13T05:12:54;-2.00;99.90
16643;DHT22;8435;52.184;5.406;2022-12-13T05:15:22;-2.10;99.90
16643;DHT22;8435;52.184;5.406;2022-12-13T05:17:49;-2.00;99.90
16643;DHT22;8435;52.184;5.406;2022-12-13T05:20:15;-2.00;99.90
16643;DHT22;8435;52.184;5.406;2022-12-13T05:22:43;-2.10;99.90
16643;DHT22;8435;52.184;5.406;2022-12-13T05:25:10;-2.00;99.90
16643;DHT22;8435;52.184;5.406;2022-12-13T05:27:37;-2.10;99.90
16643;DHT22;8435;52.184;5.406;2022-12-13T05:30:04;-2.10;99.90
16643;DHT22;8435;52.184;5.406;2022-12-13T05:32:34;-2.10;99.90
16643;DHT22;8435;52.184;5.406;2022-12-13T05:35:03;-2.00;99.90
16643;DHT22;8435;52.184;5.406;2022-12-13T05:37:30;-2.00;99.90
16643;DHT22;8435;52.184;5.406;2022-12-13T05:39:57;-2.00;99.90
16643;DHT22;8435;52.184;5.406;2022-12-13T05:42:24;-2.00;99.90
16643;DHT22;8435;52.184;5.406;2022-12-13T05:44:51;-2.00;99.90
16643;DHT22;8435;52.184;5.406;2022-12-13T05:47:18;-2.10;99.90
16643;DHT22;8435;52.184;5.406;2022-12-13T05:49:46;-2.10;99.90
16643;DHT22;8435;52.184;5.406;2022-12-13T05:52:16;-2.00;99.90
16643;DHT22;8435;52.184;5.406;2022-12-13T05:54:44;-2.10;99.90
16643;DHT22;8435;52.184;5.406;2022-12-13T05:57:11;-2.00;99.90
16643;DHT22;8435;52.184;5.406;2022-12-13T05:59:38;-2.00;99.90
16643;DHT22;8435;52.184;5.406;2022-12-13T06:02:05;-2.00;99.90
16643;DHT22;8435;52.184;5.406;2022-12-13T06:04:32;-2.10;99.90
16643;DHT22;8435;52.184;5.406;2022-12-13T06:07:00;-2.00;99.90
16643;DHT22;8435;52.184;5.406;2022-12-13T06:09:27;-2.10;99.90
16643;DHT22;8435;52.184;5.406;2022-12-13T06:11:55;-2.10;99.90
16643;DHT22;8435;52.184;5.406;2022-12-13T06:14:22;-2.10;99.90
16643;DHT22;8435;52.184;5.406;2022-12-13T06:16:50;-2.10;99.90
16643;DHT22;8435;52.184;5.406;2022-12-13T06:19:17;-2.10;99.90
16643;DHT22;8435;52.184;5.406;2022-12-13T06:21:44;-2.10;99.90
16643;DHT22;8435;52.184;5.406;2022-12-13T06:24:13;-2.10;99.90
16643;DHT22;8435;52.184;5.406;2022-12-13T06:26:40;-2.10;99.90
16643;DHT22;8435;52.184;5.406;2022-12-13T06:29:07;-2.10;99.90
16643;DHT22;8435;52.184;5.406;2022-12-13T06:31:34;-2.10;99.90
16643;DHT22;8435;52.184;5.406;2022-12-13T06:34:01;-2.10;99.90
16643;DHT22;8435;52.184;5.406;2022-12-13T06:36:28;-2.10;99.90
16643;DHT22;8435;52.184;5.406;2022-12-13T06:38:55;-2.10;99.90
16643;DHT22;8435;52.184;5.406;2022-12-13T06:41:23;-2.10;99.90
16643;DHT22;8435;52.184;5.406;2022-12-13T06:43:50;-2.10;99.90
16643;DHT22;8435;52.184;5.406;2022-12-13T06:46:17;-2.10;99.90
16643;DHT22;8435;52.184;5.406;2022-12-13T06:48:44;-2.10;99.90
16643;DHT22;8435;52.184;5.406;2022-12-13T06:51:11;-2.10;99.90
16643;DHT22;8435;52.184;5.406;2022-12-13T06:53:39;-2.10;99.90
16643;DHT22;8435;52.184;5.406;2022-12-13T06:56:07;-2.10;99.90
16643;DHT22;8435;52.184;5.406;2022-12-13T06:58:36;-2.10;99.90
16643;DHT22;8435;52.184;5.406;2022-12-13T07:01:05;-2.10;99.90
16643;DHT22;8435;52.184;5.406;2022-12-13T07:03:33;-2.10;99.90
16643;DHT22;8435;52.184;5.406;2022-12-13T07:06:04;-2.10;99.90
16643;DHT22;8435;52.184;5.406;2022-12-13T07:08:31;-2.10;99.90
16643;DHT22;8435;52.184;5.406;2022-12-13T07:10:59;-2.10;99.90
16643;DHT22;8435;52.184;5.406;2022-12-13T07:13:26;-2.10;99.90
16643;DHT22;8435;52.184;5.406;2022-12-13T07:15:54;-2.10;99.90
16643;DHT22;8435;52.184;5.406;2022-12-13T07:18:21;-2.10;99.90
16643;DHT22;8435;52.184;5.406;2022-12-13T07:20:48;-2.10;99.90
16643;DHT22;8435;52.184;5.406;2022-12-13T07:23:14;-2.10;99.90
16643;DHT22;8435;52.184;5.406;2022-12-13T07:25:41;-2.10;99.90
16643;DHT22;8435;52.184;5.406;2022-12-13T07:28:08;-2.10;99.90
16643;DHT22;8435;52.184;5.406;2022-12-13T07:30:36;-2.10;99.90
16643;DHT22;8435;52.184;5.406;2022-12-13T07:33:05;-2.10;99.90
16643;DHT22;8435;52.184;5.406;2022-12-13T07:35:33;-2.10;99.90
16643;DHT22;8435;52.184;5.406;2022-12-13T07:38:00;-2.10;99.90
16643;DHT22;8435;52.184;5.406;2022-12-13T07:40:26;-2.10;99.90
16643;DHT22;8435;52.184;5.406;2022-12-13T07:42:55;-2.10;99.90
16643;DHT22;8435;52.184;5.406;2022-12-13T07:45:22;-2.10;99.90
16643;DHT22;8435;52.184;5.406;2022-12-13T07:47:49;-2.20;99.90
16643;DHT22;8435;52.184;5.406;2022-12-13T07:50:18;-2.10;99.90
16643;DHT22;8435;52.184;5.406;2022-12-13T07:52:46;-2.00;99.90
16643;DHT22;8435;52.184;5.406;2022-12-13T07:55:13;-2.00;99.90
16643;DHT22;8435;52.184;5.406;2022-12-13T07:57:39;-2.00;99.90
16643;DHT22;8435;52.184;5.406;2022-12-13T08:00:07;-2.00;99.90
16643;DHT22;8435;52.184;5.406;2022-12-13T08:02:34;-2.00;99.90
16643;DHT22;8435;52.184;5.406;2022-12-13T08:05:01;-2.00;99.90
16643;DHT22;8435;52.184;5.406;2022-12-13T08:07:29;-1.90;99.90
16643;DHT22;8435;52.184;5.406;2022-12-13T08:09:56;-2.00;99.90
16643;DHT22;8435;52.184;5.406;2022-12-13T08:12:23;-1.90;99.90
16643;DHT22;8435;52.184;5.406;2022-12-13T08:14:51;-1.90;99.90
16643;DHT22;8435;52.184;5.406;2022-12-13T08:17:18;-1.80;99.90
16643;DHT22;8435;52.184;5.406;2022-12-13T08:19:44;-1.70;99.90
16643;DHT22;8435;52.184;5.406;2022-12-13T08:22:11;-1.60;99.90
16643;DHT22;8435;52.184;5.406;2022-12-13T08:24:40;-1.50;99.90
16643;DHT22;8435;52.184;5.406;2022-12-13T08:27:08;-1.40;99.90
16643;DHT22;8435;52.184;5.406;2022-12-13T08:29:34;-1.30;99.90
16643;DHT22;8435;52.184;5.406;2022-12-13T08:32:02;-1.30;99.90
16643;DHT22;8435;52.184;5.406;2022-12-13T08:34:29;-1.20;99.90
16643;DHT22;8435;52.184;5.406;2022-12-13T08:36:56;-1.20;99.90
16643;DHT22;8435;52.184;5.406;2022-12-13T08:39:23;-1.10;99.90
16643;DHT22;8435;52.184;5.406;2022-12-13T08:41:51;-1.10;99.90
16643;DHT22;8435;52.184;5.406;2022-12-13T08:44:18;-1.10;99.90
16643;DHT22;8435;52.184;5.406;2022-12-13T08:46:45;-1.10;99.90
16643;DHT22;8435;52.184;5.406;2022-12-13T08:49:11;-1.00;99.90
16643;DHT22;8435;52.184;5.406;2022-12-13T08:51:38;-1.00;99.90
16643;DHT22;8435;52.184;5.406;2022-12-13T08:54:05;-1.00;99.90
16643;DHT22;8435;52.184;5.406;2022-12-13T08:56:32;-1.00;99.90
16643;DHT22;8435;52.184;5.406;2022-12-13T08:59:00;-1.00;99.90
16643;DHT22;8435;52.184;5.406;2022-12-13T09:01:27;-0.90;99.90
16643;DHT22;8435;52.184;5.406;2022-12-13T09:03:54;-0.90;99.90
16643;DHT22;8435;52.184;5.406;2022-12-13T09:06:21;-0.90;99.90
16643;DHT22;8435;52.184;5.406;2022-12-13T09:08:51;-0.90;99.90
16643;DHT22;8435;52.184;5.406;2022-12-13T09:11:18;-0.80;99.90
16643;DHT22;8435;52.184;5.406;2022-12-13T09:13:45;-0.80;99.90
16643;DHT22;8435;52.184;5.406;2022-12-13T09:16:15;-0.80;99.90
16643;DHT22;8435;52.184;5.406;2022-12-13T09:18:43;-0.70;99.90
16643;DHT22;8435;52.184;5.406;2022-12-13T09:21:12;-0.70;99.90
16643;DHT22;8435;52.184;5.406;2022-12-13T09:23:40;-0.70;99.90
16643;DHT22;8435;52.184;5.406;2022-12-13T09:26:08;-0.70;99.90
16643;DHT22;8435;52.184;5.406;2022-12-13T09:28:37;-0.60;99.90
16643;DHT22;8435;52.184;5.406;2022-12-13T09:31:06;-0.60;99.90
16643;DHT22;8435;52.184;5.406;2022-12-13T09:33:35;-0.50;99.90
16643;DHT22;8435;52.184;5.406;2022-12-13T09:36:03;-0.50;99.90
16643;DHT22;8435;52.184;5.406;2022-12-13T09:38:31;-0.50;99.90
16643;DHT22;8435;52.184;5.406;2022-12-13T09:41:11;-0.40;99.90
16643;DHT22;8435;52.184;5.406;2022-12-13T09:43:41;-0.40;99.90
16643;DHT22;8435;52.184;5.406;2022-12-13T09:46:15;-0.30;99.90
16643;DHT22;8435;52.184;5.406;2022-12-13T09:48:46;-0.30;99.90
16643;DHT22;8435;52.184;5.406;2022-12-13T09:51:13;-0.30;99.90
16643;DHT22;8435;52.184;5.406;2022-12-13T09:53:40;-0.20;99.90
16643;DHT22;8435;52.184;5.406;2022-12-13T09:56:09;-0.20;99.90
16643;DHT22;8435;52.184;5.406;2022-12-13T09:58:37;-0.20;99.90
16643;DHT22;8435;52.184;5.406;2022-12-13T10:01:04;-0.20;99.90
16643;DHT22;8435;52.184;5.406;2022-12-13T10:03:31;-0.20;99.90
16643;DHT22;8435;52.184;5.406;2022-12-13T10:06:11;-0.10;99.90
16643;DHT22;8435;52.184;5.406;2022-12-13T10:08:41;0.00;99.90
16643;DHT22;8435;52.184;5.406;2022-12-13T10:11:14;0.00;99.90
16643;DHT22;8435;52.184;5.406;2022-12-13T10:13:43;0.00;99.90
16643;DHT22;8435;52.184;5.406;2022-12-13T10:16:15;0.00;99.90
16643;DHT22;8435;52.184;5.406;2022-12-13T10:18:43;0.10;99.90
16643;DHT22;8435;52.184;5.406;2022-12-13T10:21:18;0.10;99.90
16643;DHT22;8435;52.184;5.406;2022-12-13T10:23:46;0.10;99.90
16643;DHT22;8435;52.184;5.406;2022-12-13T10:26:13;0.10;99.90
16643;DHT22;8435;52.184;5.406;2022-12-13T10:28:41;0.10;99.90
16643;DHT22;8435;52.184;5.406;2022-12-13T10:31:15;0.20;99.90
16643;DHT22;8435;52.184;5.406;2022-12-13T10:33:51;0.20;99.90
16643;DHT22;8435;52.184;5.406;2022-12-13T10:36:32;0.20;99.90
16643;DHT22;8435;52.184;5.406;2022-12-13T10:39:00;0.20;99.90
16643;DHT22;8435;52.184;5.406;2022-12-13T10:41:33;0.30;99.90
16643;DHT22;8435;52.184;5.406;2022-12-13T10:44:10;0.30;99.90
16643;DHT22;8435;52.184;5.406;2022-12-13T10:46:41;0.30;99.90
16643;DHT22;8435;52.184;5.406;2022-12-13T10:49:15;0.30;99.90
16643;DHT22;8435;52.184;5.406;2022-12-13T10:51:45;0.30;99.90
16643;DHT22;8435;52.184;5.406;2022-12-13T10:54:15;0.30;99.90
16643;DHT22;8435;52.184;5.406;2022-12-13T10:56:46;0.40;99.90
16643;DHT22;8435;52.184;5.406;2022-12-13T10:59:26;0.40;99.90
16643;DHT22;8435;52.184;5.406;2022-12-13T11:01:56;0.40;99.90
16643;DHT22;8435;52.184;5.406;2022-12-13T11:04:26;0.50;99.90
16643;DHT22;8435;52.184;5.406;2022-12-13T11:06:56;0.50;99.90
16643;DHT22;8435;52.184;5.406;2022-12-13T11:09:29;0.50;99.90
16643;DHT22;8435;52.184;5.406;2022-12-13T11:11:59;0.50;99.90
16643;DHT22;8435;52.184;5.406;2022-12-13T11:14:28;0.50;99.90
16643;DHT22;8435;52.184;5.406;2022-12-13T11:16:58;0.60;99.90
16643;DHT22;8435;52.184;5.406;2022-12-13T11:19:28;0.60;99.90
16643;DHT22;8435;52.184;5.406;2022-12-13T11:21:58;0.60;99.90
16643;DHT22;8435;52.184;5.406;2022-12-13T11:24:29;0.60;99.90
16643;DHT22;8435;52.184;5.406;2022-12-13T11:27:01;0.60;99.90
16643;DHT22;8435;52.184;5.406;2022-12-13T11:29:43;0.70;99.90
16643;DHT22;8435;52.184;5.406;2022-12-13T11:32:15;0.70;99.90
16643;DHT22;8435;52.184;5.406;2022-12-13T11:34:49;0.70;99.90
16643;DHT22;8435;52.184;5.406;2022-12-13T11:37:25;0.70;99.90
16643;DHT22;8435;52.184;5.406;2022-12-13T11:39:56;0.70;99.90
16643;DHT22;8435;52.184;5.406;2022-12-13T11:42:26;0.70;99.90
16643;DHT22;8435;52.184;5.406;2022-12-13T11:44:59;0.80;99.90
16643;DHT22;8435;52.184;5.406;2022-12-13T11:47:33;0.70;99.90
16643;DHT22;8435;52.184;5.406;2022-12-13T11:50:02;0.80;99.90
16643;DHT22;8435;52.184;5.406;2022-12-13T11:52:37;0.80;99.90
16643;DHT22;8435;52.184;5.406;2022-12-13T11:55:14;0.80;99.90
16643;DHT22;8435;52.184;5.406;2022-12-13T11:57:45;0.80;99.90
16643;DHT22;8435;52.184;5.406;2022-12-13T12:00:28;0.80;99.90
16643;DHT22;8435;52.184;5.406;2022-12-13T12:03:01;0.80;99.90
16643;DHT22;8435;52.184;5.406;2022-12-13T12:05:33;0.90;99.90
16643;DHT22;8435;52.184;5.406;2022-12-13T12:08:05;0.90;99.90
16643;DHT22;8435;52.184;5.406;2022-12-13T12:10:40;0.80;99.90
16643;DHT22;8435;52.184;5.406;2022-12-13T12:13:14;0.80;99.90
16643;DHT22;8435;52.184;5.406;2022-12-13T12:15:46;0.90;99.90
16643;DHT22;8435;52.184;5.406;2022-12-13T12:18:15;0.90;99.90
16643;DHT22;8435;52.184;5.406;2022-12-13T12:20:51;0.90;99.90
16643;DHT22;8435;52.184;5.406;2022-12-13T12:23:29;0.90;99.90
16643;DHT22;8435;52.184;5.406;2022-12-13T12:26:03;0.90;99.90
16643;DHT22;8435;52.184;5.406;2022-12-13T12:28:43;0.90;99.90
16643;DHT22;8435;52.184;5.406;2022-12-13T12:31:18;0.90;99.90
16643;DHT22;8435;52.184;5.406;2022-12-13T12:33:53;0.90;99.90
16643;DHT22;8435;52.184;5.406;2022-12-13T12:36:48;0.90;99.90
16643;DHT22;8435;52.184;5.406;2022-12-13T12:39:33;1.00;99.90
16643;DHT22;8435;52.184;5.406;2022-12-13T12:42:17;1.00;99.90
16643;DHT22;8435;52.184;5.406;2022-12-13T12:45:02;1.00;99.90
16643;DHT22;8435;52.184;5.406;2022-12-13T12:47:39;1.00;99.90
16643;DHT22;8435;52.184;5.406;2022-12-13T12:50:35;1.00;99.90
16643;DHT22;8435;52.184;5.406;2022-12-13T12:53:29;1.10;99.90
16643;DHT22;8435;52.184;5.406;2022-12-13T12:56:21;1.10;99.90
16643;DHT22;8435;52.184;5.406;2022-12-13T12:58:54;1.10;99.90
16643;DHT22;8435;52.184;5.406;2022-12-13T13:01:31;1.20;99.90
16643;DHT22;8435;52.184;5.406;2022-12-13T13:04:07;1.20;99.90
16643;DHT22;8435;52.184;5.406;2022-12-13T13:06:38;1.20;99.90
16643;DHT22;8435;52.184;5.406;2022-12-13T13:09:08;1.20;99.90
16643;DHT22;8435;52.184;5.406;2022-12-13T13:11:39;1.20;99.90
16643;DHT22;8435;52.184;5.406;2022-12-13T13:14:26;1.20;99.90
16643;DHT22;8435;52.184;5.406;2022-12-13T13:16:53;1.20;99.90
16643;DHT22;8435;52.184;5.406;2022-12-13T13:19:39;1.20;99.90
16643;DHT22;8435;52.184;5.406;2022-12-13T13:22:30;1.20;99.90
16643;DHT22;8435;52.184;5.406;2022-12-13T13:25:00;1.20;99.90
16643;DHT22;8435;52.184;5.406;2022-12-13T13:27:41;1.20;99.90
16643;DHT22;8435;52.184;5.406;2022-12-13T13:30:16;1.20;99.90
16643;DHT22;8435;52.184;5.406;2022-12-13T13:32:44;1.20;99.90
16643;DHT22;8435;52.184;5.406;2022-12-13T13:41:39;1.10;99.90
16643;DHT22;8435;52.184;5.406;2022-12-13T13:44:33;1.10;99.90
16643;DHT22;8435;52.184;5.406;2022-12-13T13:47:10;1.20;99.90
16643;DHT22;8435;52.184;5.406;2022-12-13T13:49:42;1.20;99.90
16643;DHT22;8435;52.184;5.406;2022-12-13T13:52:18;1.20;99.90
16643;DHT22;8435;52.184;5.406;2022-12-13T13:55:20;1.10;99.90
16643;DHT22;8435;52.184;5.406;2022-12-13T13:58:14;1.20;99.90
16643;DHT22;8435;52.184;5.406;2022-12-13T14:01:09;1.10;99.90
16643;DHT22;8435;52.184;5.406;2022-12-13T14:04:19;1.10;99.90
16643;DHT22;8435;52.184;5.406;2022-12-13T14:07:24;1.20;99.90
16643;DHT22;8435;52.184;5.406;2022-12-13T14:10:13;1.10;99.90
16643;DHT22;8435;52.184;5.406;2022-12-13T14:16:16;1.10;99.90
16643;DHT22;8435;52.184;5.406;2022-12-13T14:19:14;1.10;99.90
16643;DHT22;8435;52.184;5.406;2022-12-13T14:24:52;1.10;99.90
16643;DHT22;8435;52.184;5.406;2022-12-13T14:27:31;1.10;99.90
16643;DHT22;8435;52.184;5.406;2022-12-13T14:30:00;1.10;99.90
16643;DHT22;8435;52.184;5.406;2022-12-13T14:32:30;1.10;99.90
16643;DHT22;8435;52.184;5.406;2022-12-13T14:35:01;1.10;99.90
16643;DHT22;8435;52.184;5.406;2022-12-13T14:37:30;1.10;99.90
16643;DHT22;8435;52.184;5.406;2022-12-13T14:39:57;1.10;99.90
16643;DHT22;8435;52.184;5.406;2022-12-13T14:42:26;1.10;99.90
16643;DHT22;8435;52.184;5.406;2022-12-13T14:44:55;1.10;99.90
16643;DHT22;8435;52.184;5.406;2022-12-13T14:47:39;1.10;99.90
16643;DHT22;8435;52.184;5.406;2022-12-13T14:50:07;1.10;99.90
16643;DHT22;8435;52.184;5.406;2022-12-13T14:52:37;1.10;99.90
16643;DHT22;8435;52.184;5.406;2022-12-13T14:55:06;1.00;99.90
16643;DHT22;8435;52.184;5.406;2022-12-13T14:57:34;1.10;99.90
16643;DHT22;8435;52.184;5.406;2022-12-13T15:00:20;1.10;99.90
16643;DHT22;8435;52.184;5.406;2022-12-13T15:02:51;1.00;99.90
16643;DHT22;8435;52.184;5.406;2022-12-13T15:05:24;1.00;99.90
16643;DHT22;8435;52.184;5.406;2022-12-13T15:07:52;1.00;99.90
16643;DHT22;8435;52.184;5.406;2022-12-13T15:10:21;1.00;99.90
16643;DHT22;8435;52.184;5.406;2022-12-13T15:12:50;1.00;99.90
16643;DHT22;8435;52.184;5.406;2022-12-13T15:15:22;1.00;99.90
16643;DHT22;8435;52.184;5.406;2022-12-13T15:18:04;1.00;99.90
16643;DHT22;8435;52.184;5.406;2022-12-13T15:20:31;0.90;99.90
16643;DHT22;8435;52.184;5.406;2022-12-13T15:23:01;0.90;99.90
16643;DHT22;8435;52.184;5.406;2022-12-13T15:25:32;0.90;99.90
16643;DHT22;8435;52.184;5.406;2022-12-13T15:27:59;0.90;99.90
16643;DHT22;8435;52.184;5.406;2022-12-13T15:30:27;0.90;99.90
16643;DHT22;8435;52.184;5.406;2022-12-13T15:33:05;0.90;99.90
16643;DHT22;8435;52.184;5.406;2022-12-13T15:35:33;0.90;99.90
16643;DHT22;8435;52.184;5.406;2022-12-13T15:38:01;0.80;99.90
16643;DHT22;8435;52.184;5.406;2022-12-13T15:40:28;0.80;99.90
16643;DHT22;8435;52.184;5.406;2022-12-13T15:42:56;0.80;99.90
16643;DHT22;8435;52.184;5.406;2022-12-13T15:45:25;0.80;99.90
16643;DHT22;8435;52.184;5.406;2022-12-13T15:47:53;0.70;99.90
16643;DHT22;8435;52.184;5.406;2022-12-13T15:50:32;0.70;99.90
16643;DHT22;8435;52.184;5.406;2022-12-13T15:53:01;0.80;99.90
16643;DHT22;8435;52.184;5.406;2022-12-13T15:55:33;0.70;99.90
16643;DHT22;8435;52.184;5.406;2022-12-13T15:58:01;0.70;99.90
16643;DHT22;8435;52.184;5.406;2022-12-13T16:00:29;0.70;99.90
16643;DHT22;8435;52.184;5.406;2022-12-13T16:03:04;0.70;99.90
16643;DHT22;8435;52.184;5.406;2022-12-13T16:05:35;0.70;99.90
16643;DHT22;8435;52.184;5.406;2022-12-13T16:08:05;0.70;99.90
16643;DHT22;8435;52.184;5.406;2022-12-13T16:10:33;0.60;99.90
16643;DHT22;8435;52.184;5.406;2022-12-13T16:13:02;0.60;99.90
16643;DHT22;8435;52.184;5.406;2022-12-13T16:15:31;0.60;99.90
16643;DHT22;8435;52.184;5.406;2022-12-13T16:18:06;0.60;99.90
16643;DHT22;8435;52.184;5.406;2022-12-13T16:20:34;0.60;99.90
16643;DHT22;8435;52.184;5.406;2022-12-13T16:23:01;0.60;99.90
16643;DHT22;8435;52.184;5.406;2022-12-13T16:25:28;0.60;99.90
16643;DHT22;8435;52.184;5.406;2022-12-13T16:27:55;0.50;99.90